Time;durP1;ratioP1;P1;durP2;ratioP2;P2;SDS_P1;SDS_P2;PMS_P1;PMS_P2;Temp;Humidity;BMP_temperature;BMP_pressure;BME280_temperature;BME280_humidity;BME280_pressure;Samples;Min_cycle;Max_cycle;Signal;HPM_P1;HPM_P2
2021/10/16 00:02:03;;;;;;;15.77;4.83;;;;;;;5.38;100.00;101125.09;5010701;28;20046;-83
2021/10/16 00:04:30;;;;;;;15.70;5.23;;;;;;;5.34;100.00;101128.56;5008691;28;20061;-81
2021/10/16 00:06:57;;;;;;;12.80;3.77;;;;;;;5.39;100.00;101137.38;5027762;28;20063;-80
2021/10/16 00:09:23;;;;;;;9.37;4.10;;;;;;;5.35;100.00;101131.22;5009799;28;20045;-81
2021/10/16 00:11:50;;;;;;;9.57;4.70;;;;;;;5.40;100.00;101130.38;4995102;28;20049;-82
2021/10/16 00:14:17;;;;;;;10.60;4.13;;;;;;;5.37;100.00;101133.84;5026644;28;20555;-82
2021/10/16 00:16:43;;;;;;;8.50;3.60;;;;;;;5.36;100.00;101126.84;5022374;28;20043;-80
2021/10/16 00:19:10;;;;;;;13.50;3.70;;;;;;;5.37;100.00;101139.06;5025842;28;20119;-82
2021/10/16 00:21:38;;;;;;;15.03;5.50;;;;;;;5.33;100.00;101137.31;5015198;28;20042;-81
2021/10/16 00:24:05;;;;;;;9.53;3.50;;;;;;;5.31;100.00;101128.56;5010911;28;20053;-82
2021/10/16 00:26:33;;;;;;;9.33;3.67;;;;;;;5.33;100.00;101126.81;4994867;28;20042;-82
2021/10/16 00:28:59;;;;;;;8.50;4.43;;;;;;;5.36;100.00;101137.31;5008450;28;20045;-82
2021/10/16 00:31:26;;;;;;;9.57;3.17;;;;;;;5.35;100.00;101139.06;4992527;28;20037;-82
2021/10/16 00:33:56;;;;;;;7.43;3.43;;;;;;;5.36;100.00;101137.31;5002891;28;20033;-82
2021/10/16 00:36:22;;;;;;;9.53;3.27;;;;;;;5.32;100.00;101135.56;5011944;28;20025;-81
2021/10/16 00:38:49;;;;;;;10.90;3.03;;;;;;;5.35;100.00;101146.94;5009354;28;20050;-83
2021/10/16 00:41:16;;;;;;;10.50;3.80;;;;;;;5.34;100.00;101152.16;4995389;28;20111;-81
2021/10/16 00:43:43;;;;;;;6.17;2.70;;;;;;;5.31;100.00;101142.53;5010052;28;20041;-82
2021/10/16 00:46:10;;;;;;;7.27;3.17;;;;;;;5.29;100.00;101146.88;5011515;28;20041;-83
2021/10/16 00:48:37;;;;;;;11.07;4.03;;;;;;;5.29;100.00;101151.22;5010071;28;20103;-82
2021/10/16 00:51:04;;;;;;;8.83;4.30;;;;;;;5.26;100.00;101157.31;5011412;28;20042;-82
2021/10/16 00:53:30;;;;;;;10.93;4.40;;;;;;;5.26;100.00;101153.84;4990204;28;20056;-83
2021/10/16 00:55:57;;;;;;;8.53;3.30;;;;;;;5.23;100.00;101153.81;5044378;28;20497;-82
2021/10/16 00:58:24;;;;;;;11.07;3.53;;;;;;;5.22;100.00;101152.94;4993704;28;20468;-82
2021/10/16 01:00:51;;;;;;;7.47;3.00;;;;;;;5.17;100.00;101145.88;4991689;28;20040;-83
2021/10/16 01:03:19;;;;;;;9.00;2.87;;;;;;;5.19;100.00;101149.41;5024887;28;20398;-83
2021/10/16 01:05:46;;;;;;;8.97;2.60;;;;;;;5.20;100.00;101148.53;5010707;28;20597;-82
2021/10/16 01:08:16;;;;;;;5.77;2.07;;;;;;;5.09;100.00;101157.16;5043948;28;20045;-83
2021/10/16 01:10:42;;;;;;;6.57;2.40;;;;;;;5.05;100.00;101152.78;5014372;28;20480;-83
2021/10/16 01:13:09;;;;;;;7.17;2.47;;;;;;;5.02;100.00;101159.72;5028881;28;20049;-84
2021/10/16 01:15:36;;;;;;;7.97;2.57;;;;;;;5.01;100.00;101158.84;5030634;28;20038;-82
2021/10/16 01:18:03;;;;;;;6.23;2.57;;;;;;;5.00;100.00;101158.81;5013938;28;20072;-82
2021/10/16 01:20:31;;;;;;;7.07;2.73;;;;;;;4.97;100.00;101161.41;5029358;28;20053;-82
2021/10/16 01:22:58;;;;;;;10.37;2.40;;;;;;;4.95;100.00;101161.38;5012676;28;20095;-84
2021/10/16 01:25:24;;;;;;;4.97;2.03;;;;;;;4.95;100.00;101155.25;4997365;28;20049;-83
2021/10/16 01:27:51;;;;;;;8.00;2.77;;;;;;;4.96;100.00;101157.94;5014080;28;20037;-85
2021/10/16 01:30:23;;;;;;;6.30;2.60;;;;;;;4.97;100.00;101166.66;5008659;28;20052;-82
2021/10/16 01:32:53;;;;;;;4.77;1.73;;;;;;;4.96;100.00;101157.94;5009324;28;20041;-81
2021/10/16 01:35:20;;;;;;;7.40;2.77;;;;;;;4.98;100.00;101161.44;5017828;28;20047;-82
2021/10/16 01:37:49;;;;;;;5.37;2.30;;;;;;;4.91;100.00;101151.75;4989887;28;20038;-84
2021/10/16 01:40:16;;;;;;;8.33;2.37;;;;;;;4.89;100.00;101163.97;5009343;28;20076;-84
2021/10/16 01:42:43;;;;;;;5.97;2.20;;;;;;;4.86;100.00;101169.13;4997352;28;20327;-83
2021/10/16 01:45:14;;;;;;;4.03;2.00;;;;;;;4.79;100.00;101167.31;4996683;28;20045;-82
2021/10/16 01:47:48;;;;;;;5.28;1.92;;;;;;;4.76;100.00;101165.53;5013124;28;20145;-84
2021/10/16 01:50:15;;;;;;;6.17;1.90;;;;;;;4.74;100.00;101169.00;5023254;28;20052;-83
2021/10/16 01:52:42;;;;;;;8.77;2.97;;;;;;;4.71;100.00;101166.38;5030078;28;20061;-83
2021/10/16 01:55:09;;;;;;;8.60;1.97;;;;;;;4.71;100.00;101166.38;5012940;28;20052;-83
2021/10/16 01:57:36;;;;;;;8.17;2.20;;;;;;;4.72;100.00;101169.00;5014394;28;20041;-82
2021/10/16 02:00:04;;;;;;;7.70;2.23;;;;;;;4.69;100.00;101168.94;4996845;28;20057;-83
2021/10/16 02:02:30;;;;;;;7.83;2.97;;;;;;;4.78;100.00;101176.03;5011898;28;20033;-84
2021/10/16 02:04:57;;;;;;;5.10;2.00;;;;;;;4.71;100.00;101172.50;5012464;28;20127;-82
2021/10/16 02:07:24;;;;;;;8.13;2.27;;;;;;;4.69;100.00;101168.94;5009383;28;20412;-82
2021/10/16 02:09:51;;;;;;;7.70;2.77;;;;;;;4.70;100.00;101178.56;5015229;28;20412;-84
2021/10/16 02:12:20;;;;;;;5.60;2.27;;;;;;;4.74;100.00;101179.47;5001111;28;20044;-82
2021/10/16 02:14:47;;;;;;;6.80;2.43;;;;;;;4.71;100.00;101182.09;4997519;28;20064;-83
2021/10/16 02:17:13;;;;;;;10.03;2.17;;;;;;;4.61;100.00;101181.06;5029873;28;20038;-82
2021/10/16 02:19:40;;;;;;;5.37;2.30;;;;;;;4.62;100.00;101176.72;5028077;28;20175;-82
2021/10/16 02:22:07;;;;;;;10.67;2.73;;;;;;;4.61;100.00;101177.56;5028714;28;20045;-82
2021/10/16 02:24:33;;;;;;;6.67;2.37;;;;;;;4.65;100.00;101185.50;4995536;28;20049;-82
2021/10/16 02:27:00;;;;;;;6.17;2.10;;;;;;;4.63;100.00;101173.25;4997971;28;20639;-82
2021/10/16 02:29:27;;;;;;;5.83;2.63;;;;;;;4.62;100.00;101181.94;5008849;28;20041;-83
2021/10/16 02:31:53;;;;;;;7.53;2.53;;;;;;;4.61;100.00;101181.06;5029303;28;20044;-82
2021/10/16 02:34:20;;;;;;;7.97;3.23;;;;;;;4.64;100.00;101185.47;5011610;28;20549;-84
2021/10/16 02:36:47;;;;;;;6.30;2.40;;;;;;;4.52;100.00;101184.44;5013674;28;20037;-82
2021/10/16 02:39:13;;;;;;;6.53;2.20;;;;;;;4.52;100.00;101194.03;5027400;28;20400;-81
2021/10/16 02:41:40;;;;;;;8.13;2.27;;;;;;;4.52;100.00;101186.19;4994779;28;20042;-82
2021/10/16 02:44:07;;;;;;;8.23;2.63;;;;;;;4.56;100.00;101193.22;5011756;28;20041;-81
2021/10/16 02:46:33;;;;;;;6.47;2.17;;;;;;;4.62;100.00;101201.13;5015611;28;20064;-82
2021/10/16 02:49:00;;;;;;;7.50;2.67;;;;;;;4.68;100.00;101205.56;5020156;28;20053;-81
2021/10/16 02:51:27;;;;;;;5.20;1.80;;;;;;;4.72;100.00;101194.31;5016222;28;20636;-80
2021/10/16 02:53:54;;;;;;;4.70;2.27;;;;;;;4.79;100.00;101197.00;5009350;28;20052;-80
2021/10/16 02:56:21;;;;;;;8.67;2.63;;;;;;;4.85;100.00;101209.28;5013375;28;20044;-80
2021/10/16 02:58:47;;;;;;;7.30;2.30;;;;;;;4.95;100.00;101205.00;5010432;28;20049;-79
2021/10/16 03:01:14;;;;;;;8.13;2.50;;;;;;;4.98;100.00;101211.19;5012512;28;20048;-80
2021/10/16 03:03:41;;;;;;;4.83;2.00;;;;;;;5.00;100.00;101213.81;5010542;28;20050;-79
2021/10/16 03:06:08;;;;;;;6.53;2.60;;;;;;;5.04;100.00;101216.50;5012843;28;20037;-79
2021/10/16 03:08:34;;;;;;;5.50;1.87;;;;;;;5.09;100.00;101216.53;5027105;28;20076;-79
2021/10/16 03:11:01;;;;;;;6.83;2.10;;;;;;;5.12;100.00;101213.06;5026172;28;20042;-80
2021/10/16 03:13:28;;;;;;;5.77;2.43;;;;;;;5.13;100.00;101210.47;4994665;28;20428;-80
2021/10/16 03:15:55;;;;;;;8.27;2.57;;;;;;;5.18;100.00;101205.25;5012917;28;20056;-80
2021/10/16 03:18:22;;;;;;;8.83;2.80;;;;;;;5.24;100.00;101207.97;5007866;28;20121;-80
2021/10/16 03:20:49;;;;;;;7.10;2.40;;;;;;;5.24;100.00;101207.97;5008646;28;20053;-80
2021/10/16 03:23:16;;;;;;;8.27;2.50;;;;;;;5.27;100.00;101214.09;4996250;28;20037;-80
2021/10/16 03:25:43;;;;;;;5.43;2.00;;;;;;;5.28;100.00;101217.59;5010563;28;20046;-80
2021/10/16 03:28:10;;;;;;;5.80;2.10;;;;;;;5.34;100.00;101220.28;5025088;28;20050;-80
2021/10/16 03:30:37;;;;;;;6.33;1.90;;;;;;;5.33;100.00;101215.91;5008226;28;20052;-81
2021/10/16 03:33:05;;;;;;;4.30;2.07;;;;;;;5.32;100.00;101219.41;4995931;28;20552;-80
2021/10/16 03:35:32;;;;;;;7.27;2.10;;;;;;;5.32;100.00;101212.41;5010746;28;20052;-81
2021/10/16 03:38:03;;;;;;;6.10;2.07;;;;;;;5.38;100.00;101216.81;4996987;28;20044;-81
2021/10/16 03:40:30;;;;;;;10.50;2.10;;;;;;;5.35;100.00;101212.44;5010916;28;20137;-80
2021/10/16 03:42:56;;;;;;;5.77;2.00;;;;;;;5.36;100.00;101214.19;5011762;28;20528;-81
2021/10/16 03:45:23;;;;;;;4.30;1.90;;;;;;;5.36;100.00;101210.69;5008000;28;20491;-81
2021/10/16 03:47:50;;;;;;;5.57;1.93;;;;;;;5.37;100.00;101217.69;5009977;28;20094;-81
2021/10/16 03:50:17;;;;;;;8.13;2.60;;;;;;;5.43;100.00;101219.50;4994731;28;20377;-81
2021/10/16 03:52:44;;;;;;;5.77;2.07;;;;;;;5.41;100.00;101227.34;4991014;28;20049;-82
2021/10/16 03:55:10;;;;;;;5.77;1.90;;;;;;;5.42;100.00;101223.84;4984925;28;20128;-80
2021/10/16 03:57:37;;;;;;;4.43;2.07;;;;;;;5.43;100.00;101222.09;5010893;28;20052;-80
2021/10/16 04:00:11;;;;;;;7.67;2.10;;;;;;;5.47;100.00;101222.16;4993902;28;20404;-79
2021/10/16 04:02:40;;;;;;;7.70;2.17;;;;;;;5.47;100.00;101224.78;5005929;28;20042;-82
2021/10/16 04:05:07;;;;;;;4.90;2.50;;;;;;;5.46;100.00;101215.13;5010411;28;20069;-81
2021/10/16 04:07:34;;;;;;;6.33;2.00;;;;;;;5.48;100.00;101216.06;5012217;28;20037;-81
2021/10/16 04:10:00;;;;;;;5.90;2.43;;;;;;;5.48;100.00;101216.06;5008669;28;20057;-81
2021/10/16 04:12:27;;;;;;;6.00;2.03;;;;;;;5.49;100.00;101217.81;5010300;28;20760;-80
2021/10/16 04:14:54;;;;;;;9.03;2.50;;;;;;;5.49;100.00;101223.06;5010372;28;20046;-80
2021/10/16 04:17:20;;;;;;;9.80;2.50;;;;;;;5.50;100.00;101222.19;5028473;28;20496;-81
2021/10/16 04:19:47;;;;;;;5.57;2.40;;;;;;;5.52;100.00;101214.31;5009549;28;20042;-84
2021/10/16 04:22:17;;;;;;;5.77;2.90;;;;;;;5.52;100.00;101220.44;5027297;28;20049;-81
2021/10/16 04:24:44;;;;;;;6.60;1.87;;;;;;;5.54;100.00;101218.72;5018570;28;20046;-81
2021/10/16 04:27:14;;;;;;;3.50;1.90;;;;;;;5.59;100.00;101217.03;5018289;28;20076;-82
2021/10/16 04:29:41;;;;;;;5.10;1.83;;;;;;;5.61;100.00;101227.50;5011068;28;20042;-83
2021/10/16 04:32:08;;;;;;;4.57;2.10;;;;;;;5.58;100.00;101217.88;4994964;28;20045;-83
2021/10/16 04:34:35;;;;;;;4.37;1.90;;;;;;;5.59;100.00;101218.75;5020733;28;20132;-83
2021/10/16 04:37:02;;;;;;;6.73;2.60;;;;;;;5.59;100.00;101219.63;5010214;28;20064;-82
2021/10/16 04:39:29;;;;;;;7.37;2.10;;;;;;;5.61;100.00;101214.41;4993816;28;20041;-82
2021/10/16 04:41:56;;;;;;;9.43;2.60;;;;;;;5.61;100.00;101215.28;5013008;28;20133;-82
2021/10/16 04:44:22;;;;;;;7.40;3.57;;;;;;;5.63;100.00;101212.66;5030482;28;20053;-82
2021/10/16 04:46:49;;;;;;;8.33;2.57;;;;;;;5.65;100.00;101219.69;4998575;28;20536;-83
2021/10/16 04:49:16;;;;;;;6.03;1.90;;;;;;;5.67;100.00;101226.69;5020946;28;20037;-82
2021/10/16 04:51:43;;;;;;;8.33;2.30;;;;;;;5.67;100.00;101227.56;4998664;28;20041;-82
2021/10/16 04:54:10;;;;;;;5.87;2.20;;;;;;;5.69;100.00;101228.47;4997456;28;20051;-82
2021/10/16 04:56:36;;;;;;;8.83;3.27;;;;;;;5.70;100.00;101226.72;5011204;28;20048;-82
2021/10/16 04:59:03;;;;;;;7.53;2.50;;;;;;;5.72;100.00;101230.22;5013507;28;20079;-83
2021/10/16 05:01:30;;;;;;;9.20;2.57;;;;;;;5.70;100.00;101229.34;5014216;28;20582;-82
2021/10/16 05:03:57;;;;;;;9.30;2.40;;;;;;;5.74;100.00;101231.13;4997971;28;20041;-82
2021/10/16 05:06:24;;;;;;;5.43;1.80;;;;;;;5.75;100.00;101238.13;5017049;28;20038;-82
2021/10/16 05:08:50;;;;;;;4.50;1.83;;;;;;;5.75;100.00;101236.38;5013175;28;20045;-81
2021/10/16 05:11:17;;;;;;;7.23;2.63;;;;;;;5.76;100.00;101240.75;4994181;28;20044;-82
2021/10/16 05:13:44;;;;;;;6.40;1.90;;;;;;;5.79;100.00;101243.41;5010086;28;20107;-83
2021/10/16 05:16:11;;;;;;;5.53;2.37;;;;;;;5.85;100.00;101250.44;5017434;28;20074;-82
2021/10/16 05:18:37;;;;;;;4.07;1.87;;;;;;;5.82;100.00;101246.06;4993337;28;20412;-83
2021/10/16 05:21:04;;;;;;;5.17;1.77;;;;;;;5.78;100.00;101244.25;5010227;28;20052;-82
2021/10/16 05:23:32;;;;;;;5.13;2.00;;;;;;;5.81;100.00;101249.56;5033342;28;20060;-82
2021/10/16 05:25:59;;;;;;;3.70;1.87;;;;;;;5.84;100.00;101246.06;5040404;28;20095;-83
2021/10/16 05:28:25;;;;;;;6.37;2.50;;;;;;;5.82;100.00;101238.19;5007117;28;20046;-82
2021/10/16 05:30:52;;;;;;;9.93;4.07;;;;;;;5.79;100.00;101238.16;5014496;28;20045;-82
2021/10/16 05:33:19;;;;;;;24.30;13.07;;;;;;;5.82;100.00;101237.31;4996202;28;20037;-81
2021/10/16 05:35:46;;;;;;;10.10;3.57;;;;;;;5.81;100.00;101244.31;5014886;28;20041;-86
2021/10/16 05:38:13;;;;;;;5.23;2.70;;;;;;;5.87;100.00;101244.34;5011833;28;20039;-83
2021/10/16 05:40:40;;;;;;;5.13;2.73;;;;;;;5.86;100.00;101246.94;5012798;28;20049;-80
2021/10/16 05:43:07;;;;;;;5.53;2.60;;;;;;;5.88;100.00;101259.19;5013500;28;20037;-80
2021/10/16 05:45:35;;;;;;;7.10;2.13;;;;;;;5.91;100.00;101253.16;4997427;28;20096;-81
2021/10/16 05:48:01;;;;;;;6.23;2.40;;;;;;;5.95;100.00;101254.91;5011215;28;20041;-81
2021/10/16 05:50:30;;;;;;;5.70;2.40;;;;;;;5.96;100.00;101255.78;4996895;28;20068;-82
2021/10/16 05:52:57;;;;;;;11.83;5.50;;;;;;;5.97;100.00;101263.72;5026639;28;20049;-83
2021/10/16 05:55:24;;;;;;;10.80;5.27;;;;;;;6.01;100.00;101272.47;5045268;28;20063;-82
2021/10/16 05:57:50;;;;;;;19.40;6.80;;;;;;;6.02;100.00;101271.59;5028929;28;20476;-81
2021/10/16 06:00:17;;;;;;;14.13;5.47;;;;;;;6.07;100.00;101285.63;5029300;28;20041;-82
2021/10/16 06:02:44;;;;;;;17.43;7.07;;;;;;;6.11;100.00;101272.53;5014452;28;20045;-80
2021/10/16 06:05:11;;;;;;;15.67;5.47;;;;;;;6.21;100.00;101276.09;5012178;28;20049;-81
2021/10/16 06:07:37;;;;;;;23.17;11.37;;;;;;;6.18;100.00;101278.72;5013878;28;20045;-82
2021/10/16 06:10:05;;;;;;;7.27;3.77;;;;;;;6.21;100.00;101290.09;5011398;28;20045;-80
2021/10/16 06:12:32;;;;;;;8.50;2.80;;;;;;;6.20;100.00;101285.72;5026960;28;20046;-81
2021/10/16 06:14:59;;;;;;;52.23;25.73;;;;;;;6.36;100.00;101301.56;5009243;28;20144;-80
2021/10/16 06:17:26;;;;;;;30.73;16.33;;;;;;;6.33;100.00;101310.31;5010302;28;20045;-81
2021/10/16 06:19:52;;;;;;;16.37;6.77;;;;;;;6.34;100.00;101305.94;5008557;28;20567;-80
2021/10/16 06:22:19;;;;;;;17.60;10.07;;;;;;;6.32;100.00;101303.31;5026926;28;20042;-80
2021/10/16 06:24:46;;;;;;;13.07;5.80;;;;;;;6.36;100.00;101312.06;5009021;28;20046;-81
2021/10/16 06:27:12;;;;;;;15.27;6.87;;;;;;;6.41;100.00;101315.63;4994031;28;20046;-81
2021/10/16 06:29:39;;;;;;;8.37;4.30;;;;;;;6.44;100.00;101318.25;5008245;28;20054;-80
2021/10/16 06:32:06;;;;;;;9.10;4.80;;;;;;;6.46;100.00;101325.25;5010427;28;20061;-81
2021/10/16 06:34:33;;;;;;;9.23;3.20;;;;;;;6.48;100.00;101314.81;5009172;28;20054;-81
2021/10/16 06:36:59;;;;;;;5.70;3.00;;;;;;;6.52;100.00;101315.69;5020915;28;20052;-81
2021/10/16 06:39:26;;;;;;;5.90;3.10;;;;;;;6.62;100.00;101318.38;4995930;28;20041;-83
2021/10/16 06:41:53;;;;;;;7.40;3.57;;;;;;;6.64;100.00;101311.41;5033858;28;20523;-81
2021/10/16 06:44:19;;;;;;;9.77;5.90;;;;;;;6.76;100.00;101321.97;5097281;23;20381;-86
2021/10/16 06:46:46;;;;;;;8.87;4.80;;;;;;;6.77;100.00;101326.34;5016900;28;20158;-85
2021/10/16 06:49:13;;;;;;;6.60;3.03;;;;;;;6.80;100.00;101319.34;5031641;28;20045;-86
2021/10/16 06:51:39;;;;;;;19.13;13.23;;;;;;;6.88;100.00;101338.66;5017781;28;20049;-85
2021/10/16 06:54:06;;;;;;;9.63;4.00;;;;;;;6.99;100.00;101332.59;5031104;28;20076;-81
2021/10/16 06:56:33;;;;;;;6.63;3.07;;;;;;;6.99;100.00;101334.34;5031879;28;20466;-85
2021/10/16 06:58:59;;;;;;;10.73;3.30;;;;;;;7.01;100.00;101338.75;5039290;28;20052;-85
2021/10/16 07:01:26;;;;;;;9.50;3.27;;;;;;;6.98;100.00;101341.38;5020638;28;20542;-85
2021/10/16 07:03:57;;;;;;;6.82;3.33;;;;;;;7.02;100.00;101332.59;5037176;28;20049;-85
2021/10/16 07:06:27;;;;;;;6.97;2.70;;;;;;;7.09;100.00;101330.91;5020560;28;20041;-85
2021/10/16 07:08:54;;;;;;;7.27;3.90;;;;;;;7.10;100.00;101330.03;5035399;28;20049;-84
2021/10/16 07:11:21;;;;;;;10.03;3.00;;;;;;;7.12;100.00;101344.03;5016617;28;20592;-85
2021/10/16 07:13:47;;;;;;;7.40;2.20;;;;;;;7.20;100.00;101334.44;5006518;28;20517;-85
2021/10/16 07:16:14;;;;;;;4.80;2.70;;;;;;;7.32;100.00;101347.66;5026334;28;20074;-85
2021/10/16 07:18:41;;;;;;;6.77;2.57;;;;;;;7.36;100.00;101348.53;5029290;28;20038;-86
2021/10/16 07:21:08;;;;;;;6.53;2.10;;;;;;;7.39;100.00;101352.91;5032097;28;20132;-83
2021/10/16 07:23:56;;;;;;;6.90;2.33;;;;;;;7.44;100.00;101344.16;5034318;28;20046;-85
2021/10/16 07:26:23;;;;;;;8.52;2.78;;;;;;;7.50;100.00;101346.81;5010450;28;20056;-86
2021/10/16 07:28:50;;;;;;;7.20;2.85;;;;;;;7.63;100.00;101345.97;5030631;28;20033;-85
2021/10/16 07:31:18;;;;;;;6.35;1.92;;;;;;;7.66;100.00;101334.59;5032999;28;20106;-83
2021/10/16 07:33:44;;;;;;;7.70;3.00;;;;;;;7.78;100.00;101344.25;5023773;28;20048;-86
2021/10/16 07:36:11;;;;;;;5.28;2.10;;;;;;;7.85;100.00;101352.16;5028872;28;20052;-85
2021/10/16 07:38:39;;;;;;;11.40;3.00;;;;;;;8.03;100.00;101339.91;5040488;28;20036;-85
2021/10/16 07:41:06;;;;;;;7.38;2.72;;;;;;;8.06;100.00;101347.78;5055312;28;20044;-86
2021/10/16 07:43:33;;;;;;;6.43;2.13;;;;;;;8.08;100.00;101348.69;5049012;28;20060;-82
2021/10/16 07:46:00;;;;;;;5.82;2.00;;;;;;;8.14;100.00;101348.69;5035698;28;20037;-86
2021/10/16 07:48:27;;;;;;;6.85;3.30;;;;;;;8.22;100.00;101352.19;5047502;28;21037;-84
2021/10/16 07:50:54;;;;;;;8.88;3.15;;;;;;;8.26;100.00;101358.34;4999228;28;20046;-81
2021/10/16 07:53:20;;;;;;;7.65;2.50;;;;;;;8.24;100.00;101360.06;4998660;28;20423;-85
2021/10/16 07:55:49;;;;;;;7.75;2.53;;;;;;;8.31;100.00;101365.34;5017378;28;20044;-86
2021/10/16 07:58:16;;;;;;;5.88;2.55;;;;;;;8.39;100.00;101370.66;5015865;28;20100;-84
2021/10/16 08:00:42;;;;;;;9.32;2.55;;;;;;;8.29;100.00;101369.75;5039973;28;20046;-83
2021/10/16 08:03:12;;;;;;;7.55;3.20;;;;;;;8.37;100.00;101372.41;5014614;28;20052;-84
2021/10/16 08:06:22;;;;;;;6.78;2.63;;;;;;;8.47;100.00;101374.16;5042462;28;20065;-83
2021/10/16 08:09:01;;;;;;;10.32;3.10;;;;;;;8.56;100.00;101363.63;5008539;28;20041;-83
2021/10/16 08:11:52;;;;;;;6.68;2.92;;;;;;;8.54;100.00;101380.31;5054575;28;20037;-83
2021/10/16 08:14:19;;;;;;;6.43;2.70;;;;;;;8.60;100.00;101375.91;5044069;28;20057;-83
2021/10/16 08:16:46;;;;;;;11.38;3.13;;;;;;;8.65;100.00;101381.16;5043025;28;20037;-83
2021/10/16 08:19:12;;;;;;;6.28;2.10;;;;;;;8.62;100.00;101375.91;5040129;28;20071;-83
2021/10/16 08:21:39;;;;;;;4.30;2.00;;;;;;;8.74;100.00;101378.50;5061378;28;20037;-84
2021/10/16 08:24:06;;;;;;;3.13;2.00;;;;;;;8.78;100.00;101382.03;5052585;28;20052;-84
2021/10/16 08:26:34;;;;;;;7.93;2.42;;;;;;;8.89;100.00;101380.25;5038443;28;20071;-82
2021/10/16 08:29:04;;;;;;;10.70;2.58;;;;;;;8.96;100.00;101382.88;5062152;28;20048;-83
2021/10/16 08:31:39;;;;;;;8.75;2.83;;;;;;;9.03;100.00;101389.91;5053170;28;20033;-84
2021/10/16 08:34:41;;;;;;;6.05;2.60;;;;;;;9.09;100.00;101393.41;5029694;28;20071;-84
2021/10/16 08:37:15;;;;;;;5.18;2.08;;;;;;;9.11;100.00;101383.72;5022851;28;20051;-83
2021/10/16 08:39:43;;;;;;;7.35;2.63;;;;;;;9.20;100.00;101392.47;5042141;28;20053;-82
2021/10/16 08:42:10;;;;;;;7.90;2.70;;;;;;;9.21;100.00;101386.31;5051747;28;20056;-83
2021/10/16 08:44:42;;;;;;;4.80;2.10;;;;;;;9.22;100.00;101389.84;5062692;28;20079;-82
2021/10/16 08:47:11;;;;;;;5.30;2.53;;;;;;;9.35;100.00;101388.03;5035982;28;20072;-83
2021/10/16 08:49:38;;;;;;;7.43;2.13;;;;;;;9.31;100.00;101392.44;5044017;28;20049;-83
2021/10/16 08:52:04;;;;;;;8.52;2.55;;;;;;;9.30;100.00;101394.19;5044395;28;20053;-84
2021/10/16 08:54:31;;;;;;;9.25;2.97;;;;;;;9.39;100.00;101388.00;5058336;28;20051;-83
2021/10/16 08:56:58;;;;;;;5.03;1.75;;;;;;;9.46;100.00;101380.97;5066475;28;20048;-82
2021/10/16 08:59:25;;;;;;;8.40;2.92;;;;;;;9.59;100.00;101394.09;5045837;28;20041;-83
2021/10/16 09:01:59;;;;;;;7.10;3.00;;;;;;;9.52;100.00;101387.09;5048721;28;20069;-83
2021/10/16 09:04:27;;;;;;;5.40;2.35;;;;;;;9.49;100.00;101397.63;5057805;28;20116;-83
2021/10/16 09:06:55;;;;;;;4.95;1.95;;;;;;;9.59;100.00;101394.09;5039275;28;20049;-83
2021/10/16 09:09:29;;;;;;;6.00;2.97;;;;;;;9.61;100.00;101391.44;5041900;28;20041;-82
2021/10/16 09:11:56;;;;;;;;;;;;;;;9.62;100.00;101398.47;5045643;28;20452;-83
2021/10/16 09:14:28;;;;;;;7.10;2.92;;;;;;;9.68;100.00;101398.44;5027835;28;19931;-83
2021/10/16 09:17:00;;;;;;;6.85;2.63;;;;;;;9.67;100.00;101393.16;5050660;28;20321;-84
2021/10/16 09:19:30;;;;;;;8.63;2.85;;;;;;;9.72;100.00;101401.94;5050791;28;20041;-82
2021/10/16 09:22:03;;;;;;;3.58;2.30;;;;;;;9.72;100.00;101396.66;5079611;28;20143;-82
2021/10/16 09:24:43;;;;;;;7.63;2.58;;;;;;;9.70;100.00;101401.06;5047889;28;20487;-83
2021/10/16 09:27:13;;;;;;;10.35;3.42;;;;;;;9.73;100.00;101406.31;5027936;28;20049;-83
2021/10/16 09:29:43;;;;;;;10.63;3.65;;;;;;;9.82;100.00;101401.88;5055372;28;20456;-82
2021/10/16 09:32:16;;;;;;;14.35;5.55;;;;;;;9.89;100.00;101408.00;5077236;28;20045;-84
2021/10/16 09:34:47;;;;;;;6.82;3.22;;;;;;;9.94;98.69;101411.50;5049975;28;20176;-83
2021/10/16 09:37:16;;;;;;;11.20;2.92;;;;;;;9.99;100.00;101403.53;5061770;28;20055;-85
2021/10/16 09:39:49;;;;;;;9.15;3.40;;;;;;;10.00;100.00;101410.56;5031996;28;20678;-83
2021/10/16 09:42:18;;;;;;;10.10;3.60;;;;;;;10.08;100.00;101406.13;5025799;28;20056;-83
2021/10/16 09:44:47;;;;;;;10.20;3.17;;;;;;;10.18;100.00;101407.84;5051063;28;20041;-83
2021/10/16 09:47:15;;;;;;;13.27;3.95;;;;;;;10.32;100.00;101405.09;5044001;28;20088;-83
2021/10/16 09:49:45;;;;;;;7.65;3.13;;;;;;;10.47;96.09;101396.19;5038476;28;20511;-84
2021/10/16 09:52:18;;;;;;;9.32;2.55;;;;;;;10.52;97.37;101400.56;5044753;28;20051;-85
2021/10/16 09:54:47;;;;;;;7.60;2.65;;;;;;;10.66;94.61;101403.94;5028190;28;20053;-84
2021/10/16 09:57:21;;;;;;;10.95;2.97;;;;;;;10.66;91.20;101403.94;5037176;28;20038;-85
2021/10/16 09:59:48;;;;;;;7.60;3.33;;;;;;;10.74;92.65;101401.22;5019808;28;20296;-83
2021/10/16 10:02:15;;;;;;;5.88;3.00;;;;;;;10.84;93.72;101402.00;5032885;28;20520;-84
2021/10/16 10:04:45;;;;;;;5.82;3.00;;;;;;;10.80;94.88;101401.19;5026031;28;20051;-83
2021/10/16 10:07:15;;;;;;;4.40;2.10;;;;;;;10.79;88.12;101396.78;5019391;28;20083;-84
2021/10/16 10:09:42;;;;;;;8.43;2.58;;;;;;;10.80;89.06;101403.81;5040547;28;20133;-84
2021/10/16 10:12:11;;;;;;;8.93;2.75;;;;;;;10.84;87.59;101405.53;5042014;28;20041;-84
2021/10/16 10:14:39;;;;;;;7.25;2.90;;;;;;;10.88;89.46;101404.63;5055193;28;20041;-83
2021/10/16 10:17:07;;;;;;;4.55;3.10;;;;;;;10.93;90.27;101401.91;5028924;28;20030;-84
2021/10/16 10:19:39;;;;;;;6.88;3.15;;;;;;;11.03;88.82;101405.38;5058638;28;20109;-84
2021/10/16 10:22:11;;;;;;;7.13;2.63;;;;;;;11.03;87.80;101405.38;5023347;28;20082;-84
2021/10/16 10:24:41;;;;;;;5.47;2.63;;;;;;;11.05;89.29;101406.22;5034465;28;20400;-84
2021/10/16 10:27:09;;;;;;;5.93;3.28;;;;;;;11.08;89.66;101407.06;5012240;28;20049;-82
2021/10/16 10:29:38;;;;;;;5.97;2.53;;;;;;;11.17;90.92;101401.66;5000957;28;20033;-82
2021/10/16 10:32:14;;;;;;;5.28;2.08;;;;;;;11.22;86.73;101409.56;5033217;28;20045;-82
2021/10/16 10:34:55;;;;;;;9.02;3.22;;;;;;;11.13;84.50;101404.38;5013845;28;20049;-82
2021/10/16 10:37:29;;;;;;;5.90;2.60;;;;;;;11.14;87.39;101400.84;5004082;28;20049;-82
2021/10/16 10:39:57;;;;;;;8.27;2.92;;;;;;;11.19;87.34;101406.97;5015412;28;20091;-82
2021/10/16 10:42:24;;;;;;;5.78;2.75;;;;;;;11.26;82.77;101400.69;5023502;28;20051;-82
2021/10/16 10:44:59;;;;;;;4.97;2.60;;;;;;;11.28;86.86;101391.84;5056642;28;20045;-82
2021/10/16 10:47:30;;;;;;;6.45;2.00;;;;;;;11.30;85.98;101391.84;5038871;28;20044;-82
2021/10/16 10:50:01;;;;;;;4.25;2.33;;;;;;;11.36;88.18;101389.13;5040029;28;20303;-83
2021/10/16 10:52:58;;;;;;;8.93;4.00;;;;;;;11.47;84.58;101391.63;5050124;28;20367;-84
2021/10/16 10:55:25;;;;;;;7.10;3.10;;;;;;;11.50;86.75;101383.63;5068433;28;20556;-83
2021/10/16 10:58:00;;;;;;;7.03;2.70;;;;;;;11.63;84.23;101385.25;5051866;28;20045;-82
2021/10/16 11:00:32;;;;;;;7.72;3.53;;;;;;;11.66;84.59;101392.25;5040850;28;20241;-82
2021/10/16 11:02:59;;;;;;;16.52;9.05;;;;;;;11.58;84.14;101387.06;5038339;28;20601;-83
2021/10/16 11:05:36;;;;;;;11.85;4.05;;;;;;;11.57;83.54;101380.03;5036340;28;20055;-82
2021/10/16 11:08:10;;;;;;;5.97;2.33;;;;;;;11.62;83.75;101377.34;5039810;28;20041;-82
2021/10/16 11:10:38;;;;;;;3.80;1.73;;;;;;;11.60;83.57;101374.69;5048519;28;20053;-83
2021/10/16 11:13:15;;;;;;;7.07;2.47;;;;;;;11.59;83.57;101374.69;5038999;28;20033;-83
2021/10/16 11:15:44;;;;;;;7.07;2.50;;;;;;;11.67;82.21;101371.06;5023823;28;20041;-82
2021/10/16 11:18:15;;;;;;;6.88;4.10;;;;;;;11.74;82.38;101371.84;5021350;28;20041;-82
2021/10/16 11:20:42;;;;;;;5.75;2.20;;;;;;;11.77;80.00;101375.34;5051134;28;20071;-83
2021/10/16 11:23:24;;;;;;;4.43;2.03;;;;;;;11.71;81.98;101366.63;5027622;28;20092;-83
2021/10/16 11:26:01;;;;;;;8.02;2.97;;;;;;;11.76;83.27;101364.75;5036709;28;20045;-84
2021/10/16 11:28:31;;;;;;;7.00;3.33;;;;;;;11.71;81.27;101371.91;5018886;28;20093;-81
2021/10/16 11:30:59;;;;;;;7.20;3.10;;;;;;;11.66;80.64;101366.66;5036704;28;20055;-84